sensor_id;sensor_type;location;lat;lon;timestamp;temperature;humidity
17571;DHT22;8903;52.220;20.978;2023-09-19T00:02:04;19.50;99.90
17571;DHT22;8903;52.220;20.978;2023-09-19T00:04:35;19.50;99.90
17571;DHT22;8903;52.220;20.978;2023-09-19T00:07:05;19.50;99.90
17571;DHT22;8903;52.220;20.978;2023-09-19T00:09:32;19.40;99.90
17571;DHT22;8903;52.220;20.978;2023-09-19T00:12:03;19.40;99.90
17571;DHT22;8903;52.220;20.978;2023-09-19T00:14:31;19.40;99.90
17571;DHT22;8903;52.220;20.978;2023-09-19T00:17:00;19.40;99.90
17571;DHT22;8903;52.220;20.978;2023-09-19T00:19:31;19.40;99.90
17571;DHT22;8903;52.220;20.978;2023-09-19T00:22:01;19.30;99.90
17571;DHT22;8903;52.220;20.978;2023-09-19T00:24:28;19.30;99.90
17571;DHT22;8903;52.220;20.978;2023-09-19T00:26:55;19.30;99.90
17571;DHT22;8903;52.220;20.978;2023-09-19T00:29:25;19.30;99.90
17571;DHT22;8903;52.220;20.978;2023-09-19T00:31:55;19.30;99.90
17571;DHT22;8903;52.220;20.978;2023-09-19T00:34:23;19.30;99.90
17571;DHT22;8903;52.220;20.978;2023-09-19T00:36:51;19.20;99.90
17571;DHT22;8903;52.220;20.978;2023-09-19T00:39:21;19.20;99.90
17571;DHT22;8903;52.220;20.978;2023-09-19T00:41:48;19.20;99.90
17571;DHT22;8903;52.220;20.978;2023-09-19T00:44:16;19.20;99.90
17571;DHT22;8903;52.220;20.978;2023-09-19T00:46:44;19.20;99.90
17571;DHT22;8903;52.220;20.978;2023-09-19T00:49:14;19.10;99.90
17571;DHT22;8903;52.220;20.978;2023-09-19T00:51:42;19.10;99.90
17571;DHT22;8903;52.220;20.978;2023-09-19T00:54:13;19.10;99.90
17571;DHT22;8903;52.220;20.978;2023-09-19T00:56:45;19.10;99.90
17571;DHT22;8903;52.220;20.978;2023-09-19T00:59:14;19.10;99.90
17571;DHT22;8903;52.220;20.978;2023-09-19T01:01:42;19.00;99.90
17571;DHT22;8903;52.220;20.978;2023-09-19T01:04:11;19.00;99.90
17571;DHT22;8903;52.220;20.978;2023-09-19T01:06:39;19.00;99.90
17571;DHT22;8903;52.220;20.978;2023-09-19T01:09:07;19.00;99.90
17571;DHT22;8903;52.220;20.978;2023-09-19T01:11:37;19.00;99.90
17571;DHT22;8903;52.220;20.978;2023-09-19T01:14:18;19.00;99.90
17571;DHT22;8903;52.220;20.978;2023-09-19T01:16:53;19.00;99.90
17571;DHT22;8903;52.220;20.978;2023-09-19T01:19:49;18.90;99.90
17571;DHT22;8903;52.220;20.978;2023-09-19T01:22:30;18.90;99.90
17571;DHT22;8903;52.220;20.978;2023-09-19T01:25:28;18.90;99.90
17571;DHT22;8903;52.220;20.978;2023-09-19T01:28:20;18.90;99.90
17571;DHT22;8903;52.220;20.978;2023-09-19T01:30:53;18.90;99.90
17571;DHT22;8903;52.220;20.978;2023-09-19T01:33:23;18.80;99.90
17571;DHT22;8903;52.220;20.978;2023-09-19T01:35:51;18.90;99.90
17571;DHT22;8903;52.220;20.978;2023-09-19T01:38:23;18.90;99.90
17571;DHT22;8903;52.220;20.978;2023-09-19T01:40:57;18.90;99.90
17571;DHT22;8903;52.220;20.978;2023-09-19T01:43:35;18.90;99.90
17571;DHT22;8903;52.220;20.978;2023-09-19T01:46:12;18.90;99.90
17571;DHT22;8903;52.220;20.978;2023-09-19T01:48:42;18.90;99.90
17571;DHT22;8903;52.220;20.978;2023-09-19T01:51:16;18.90;99.90
17571;DHT22;8903;52.220;20.978;2023-09-19T01:53:51;18.90;99.90
17571;DHT22;8903;52.220;20.978;2023-09-19T01:56:23;18.90;99.90
17571;DHT22;8903;52.220;20.978;2023-09-19T01:58:56;18.90;99.90
17571;DHT22;8903;52.220;20.978;2023-09-19T02:01:28;18.90;99.90
17571;DHT22;8903;52.220;20.978;2023-09-19T02:03:55;18.90;99.90
17571;DHT22;8903;52.220;20.978;2023-09-19T02:06:23;18.90;99.90
17571;DHT22;8903;52.220;20.978;2023-09-19T02:08:54;18.80;99.90
17571;DHT22;8903;52.220;20.978;2023-09-19T02:11:21;18.80;99.90
17571;DHT22;8903;52.220;20.978;2023-09-19T02:13:48;18.80;99.90
17571;DHT22;8903;52.220;20.978;2023-09-19T02:16:19;18.80;99.90
17571;DHT22;8903;52.220;20.978;2023-09-19T02:18:47;18.80;99.90
17571;DHT22;8903;52.220;20.978;2023-09-19T02:21:15;18.80;99.90
17571;DHT22;8903;52.220;20.978;2023-09-19T02:23:44;18.80;99.90
17571;DHT22;8903;52.220;20.978;2023-09-19T02:26:13;18.80;99.90
17571;DHT22;8903;52.220;20.978;2023-09-19T02:28:40;18.80;99.90
17571;DHT22;8903;52.220;20.978;2023-09-19T02:31:08;18.80;99.90
17571;DHT22;8903;52.220;20.978;2023-09-19T02:33:36;18.70;99.90
17571;DHT22;8903;52.220;20.978;2023-09-19T02:36:05;18.70;99.90
17571;DHT22;8903;52.220;20.978;2023-09-19T02:38:33;18.70;99.90
17571;DHT22;8903;52.220;20.978;2023-09-19T02:41:00;18.70;99.90
17571;DHT22;8903;52.220;20.978;2023-09-19T02:43:27;18.70;99.90
17571;DHT22;8903;52.220;20.978;2023-09-19T02:45:55;18.60;99.90
17571;DHT22;8903;52.220;20.978;2023-09-19T02:48:22;18.60;99.90
17571;DHT22;8903;52.220;20.978;2023-09-19T02:50:51;18.50;99.90
17571;DHT22;8903;52.220;20.978;2023-09-19T02:53:19;18.60;99.90
17571;DHT22;8903;52.220;20.978;2023-09-19T02:55:47;18.50;99.90
17571;DHT22;8903;52.220;20.978;2023-09-19T02:58:14;18.50;99.90
17571;DHT22;8903;52.220;20.978;2023-09-19T03:00:41;18.50;99.90
17571;DHT22;8903;52.220;20.978;2023-09-19T03:03:09;18.50;99.90
17571;DHT22;8903;52.220;20.978;2023-09-19T03:05:36;18.40;99.90
17571;DHT22;8903;52.220;20.978;2023-09-19T03:08:04;18.40;99.90
17571;DHT22;8903;52.220;20.978;2023-09-19T03:10:33;18.40;99.90
17571;DHT22;8903;52.220;20.978;2023-09-19T03:13:03;18.40;99.90
17571;DHT22;8903;52.220;20.978;2023-09-19T03:15:30;18.30;99.90
17571;DHT22;8903;52.220;20.978;2023-09-19T03:17:57;18.30;99.90
17571;DHT22;8903;52.220;20.978;2023-09-19T03:20:25;18.30;99.90
17571;DHT22;8903;52.220;20.978;2023-09-19T03:22:53;18.30;99.90
17571;DHT22;8903;52.220;20.978;2023-09-19T03:25:21;18.30;99.90
17571;DHT22;8903;52.220;20.978;2023-09-19T03:27:52;18.30;99.90
17571;DHT22;8903;52.220;20.978;2023-09-19T03:30:20;18.20;99.90
17571;DHT22;8903;52.220;20.978;2023-09-19T03:32:48;18.20;99.90
17571;DHT22;8903;52.220;20.978;2023-09-19T03:35:16;18.30;99.90
17571;DHT22;8903;52.220;20.978;2023-09-19T03:37:44;18.20;99.90
17571;DHT22;8903;52.220;20.978;2023-09-19T03:40:12;18.30;99.90
17571;DHT22;8903;52.220;20.978;2023-09-19T03:42:40;18.30;99.90
17571;DHT22;8903;52.220;20.978;2023-09-19T03:45:12;18.30;99.90
17571;DHT22;8903;52.220;20.978;2023-09-19T03:47:46;18.30;99.90
17571;DHT22;8903;52.220;20.978;2023-09-19T03:50:15;18.30;99.90
17571;DHT22;8903;52.220;20.978;2023-09-19T03:52:44;18.30;99.90
17571;DHT22;8903;52.220;20.978;2023-09-19T03:55:11;18.20;99.90
17571;DHT22;8903;52.220;20.978;2023-09-19T03:57:38;18.20;99.90
17571;DHT22;8903;52.220;20.978;2023-09-19T04:00:06;18.20;99.90
17571;DHT22;8903;52.220;20.978;2023-09-19T04:02:41;18.20;99.90
17571;DHT22;8903;52.220;20.978;2023-09-19T04:05:08;18.20;99.90
17571;DHT22;8903;52.220;20.978;2023-09-19T04:07:36;18.20;99.90
17571;DHT22;8903;52.220;20.978;2023-09-19T04:10:03;18.20;99.90
17571;DHT22;8903;52.220;20.978;2023-09-19T04:12:31;18.20;99.90
17571;DHT22;8903;52.220;20.978;2023-09-19T04:14:59;18.20;99.90
17571;DHT22;8903;52.220;20.978;2023-09-19T04:17:26;18.20;99.90
17571;DHT22;8903;52.220;20.978;2023-09-19T04:19:54;18.20;99.90
17571;DHT22;8903;52.220;20.978;2023-09-19T04:22:21;18.20;99.90
17571;DHT22;8903;52.220;20.978;2023-09-19T04:24:48;18.20;99.90
17571;DHT22;8903;52.220;20.978;2023-09-19T04:27:15;18.20;99.90
17571;DHT22;8903;52.220;20.978;2023-09-19T04:29:42;18.10;99.90
17571;DHT22;8903;52.220;20.978;2023-09-19T04:32:09;18.10;99.90
17571;DHT22;8903;52.220;20.978;2023-09-19T04:34:36;18.10;99.90
17571;DHT22;8903;52.220;20.978;2023-09-19T04:37:05;18.10;99.90
17571;DHT22;8903;52.220;20.978;2023-09-19T04:39:32;18.10;99.90
17571;DHT22;8903;52.220;20.978;2023-09-19T04:41:59;18.10;99.90
17571;DHT22;8903;52.220;20.978;2023-09-19T04:44:26;18.10;99.90
17571;DHT22;8903;52.220;20.978;2023-09-19T04:46:53;18.10;99.90
17571;DHT22;8903;52.220;20.978;2023-09-19T04:49:20;18.10;99.90
17571;DHT22;8903;52.220;20.978;2023-09-19T04:51:47;18.10;99.90
17571;DHT22;8903;52.220;20.978;2023-09-19T04:54:16;18.20;99.90
17571;DHT22;8903;52.220;20.978;2023-09-19T04:56:43;18.20;99.90
17571;DHT22;8903;52.220;20.978;2023-09-19T04:59:10;18.30;99.90
17571;DHT22;8903;52.220;20.978;2023-09-19T05:01:37;18.30;99.90
17571;DHT22;8903;52.220;20.978;2023-09-19T05:04:04;18.30;99.90
17571;DHT22;8903;52.220;20.978;2023-09-19T05:06:31;18.40;99.90
17571;DHT22;8903;52.220;20.978;2023-09-19T05:09:01;18.50;99.90
17571;DHT22;8903;52.220;20.978;2023-09-19T05:11:32;18.50;99.90
17571;DHT22;8903;52.220;20.978;2023-09-19T05:13:59;18.50;99.90
17571;DHT22;8903;52.220;20.978;2023-09-19T05:16:29;18.60;99.90
17571;DHT22;8903;52.220;20.978;2023-09-19T05:18:57;18.70;99.90
17571;DHT22;8903;52.220;20.978;2023-09-19T05:21:25;18.70;99.90
17571;DHT22;8903;52.220;20.978;2023-09-19T05:23:54;18.80;99.90
17571;DHT22;8903;52.220;20.978;2023-09-19T05:26:21;18.70;99.90
17571;DHT22;8903;52.220;20.978;2023-09-19T05:28:49;18.80;99.90
17571;DHT22;8903;52.220;20.978;2023-09-19T05:31:18;18.80;99.90
17571;DHT22;8903;52.220;20.978;2023-09-19T05:33:46;18.80;99.90
17571;DHT22;8903;52.220;20.978;2023-09-19T05:36:13;18.80;99.90
17571;DHT22;8903;52.220;20.978;2023-09-19T05:38:41;18.80;99.90
17571;DHT22;8903;52.220;20.978;2023-09-19T05:41:10;18.80;99.90
17571;DHT22;8903;52.220;20.978;2023-09-19T05:43:39;18.80;99.90
17571;DHT22;8903;52.220;20.978;2023-09-19T05:46:11;18.80;99.90
17571;DHT22;8903;52.220;20.978;2023-09-19T05:48:38;18.90;99.90
17571;DHT22;8903;52.220;20.978;2023-09-19T05:51:07;18.90;99.90
17571;DHT22;8903;52.220;20.978;2023-09-19T05:53:35;18.90;99.90
17571;DHT22;8903;52.220;20.978;2023-09-19T05:56:02;18.90;99.90
17571;DHT22;8903;52.220;20.978;2023-09-19T05:58:29;19.00;99.90
17571;DHT22;8903;52.220;20.978;2023-09-19T06:00:56;19.10;99.90
17571;DHT22;8903;52.220;20.978;2023-09-19T06:03:26;19.10;99.90
17571;DHT22;8903;52.220;20.978;2023-09-19T06:05:53;19.10;99.90
17571;DHT22;8903;52.220;20.978;2023-09-19T06:08:23;19.20;99.90
17571;DHT22;8903;52.220;20.978;2023-09-19T06:10:51;19.30;99.90
17571;DHT22;8903;52.220;20.978;2023-09-19T06:13:18;19.20;99.90
17571;DHT22;8903;52.220;20.978;2023-09-19T06:15:45;19.30;99.90
17571;DHT22;8903;52.220;20.978;2023-09-19T06:18:13;19.30;99.90
17571;DHT22;8903;52.220;20.978;2023-09-19T06:20:46;19.30;99.90
17571;DHT22;8903;52.220;20.978;2023-09-19T06:23:14;19.30;99.90
17571;DHT22;8903;52.220;20.978;2023-09-19T06:25:41;19.40;99.90
17571;DHT22;8903;52.220;20.978;2023-09-19T06:28:09;19.40;99.90
17571;DHT22;8903;52.220;20.978;2023-09-19T06:30:38;19.30;99.90
17571;DHT22;8903;52.220;20.978;2023-09-19T06:33:06;19.30;99.90
17571;DHT22;8903;52.220;20.978;2023-09-19T06:35:34;19.30;99.90
17571;DHT22;8903;52.220;20.978;2023-09-19T06:38:04;19.30;99.90
17571;DHT22;8903;52.220;20.978;2023-09-19T06:40:31;19.30;99.90
17571;DHT22;8903;52.220;20.978;2023-09-19T06:42:58;19.40;99.90
17571;DHT22;8903;52.220;20.978;2023-09-19T06:45:27;19.50;99.90
17571;DHT22;8903;52.220;20.978;2023-09-19T06:47:55;19.60;99.90
17571;DHT22;8903;52.220;20.978;2023-09-19T06:50:23;19.70;99.90
17571;DHT22;8903;52.220;20.978;2023-09-19T06:52:51;19.80;99.90
17571;DHT22;8903;52.220;20.978;2023-09-19T06:55:21;19.90;99.90
17571;DHT22;8903;52.220;20.978;2023-09-19T06:57:50;20.00;99.90
17571;DHT22;8903;52.220;20.978;2023-09-19T07:00:20;20.10;99.90
17571;DHT22;8903;52.220;20.978;2023-09-19T07:02:55;20.20;99.90
17571;DHT22;8903;52.220;20.978;2023-09-19T07:05:24;20.30;99.90
17571;DHT22;8903;52.220;20.978;2023-09-19T07:07:53;20.40;99.90
17571;DHT22;8903;52.220;20.978;2023-09-19T07:10:22;20.50;99.90
17571;DHT22;8903;52.220;20.978;2023-09-19T07:12:56;20.50;99.90
17571;DHT22;8903;52.220;20.978;2023-09-19T07:15:24;20.60;99.90
17571;DHT22;8903;52.220;20.978;2023-09-19T07:17:51;20.80;99.90
17571;DHT22;8903;52.220;20.978;2023-09-19T07:20:19;20.90;99.90
17571;DHT22;8903;52.220;20.978;2023-09-19T07:22:46;21.00;99.90
17571;DHT22;8903;52.220;20.978;2023-09-19T07:25:15;21.10;99.90
17571;DHT22;8903;52.220;20.978;2023-09-19T07:27:43;21.20;99.90
17571;DHT22;8903;52.220;20.978;2023-09-19T07:30:11;21.30;99.90
17571;DHT22;8903;52.220;20.978;2023-09-19T07:32:38;21.30;99.90
17571;DHT22;8903;52.220;20.978;2023-09-19T07:35:06;21.40;99.90
17571;DHT22;8903;52.220;20.978;2023-09-19T07:37:34;21.30;99.90
17571;DHT22;8903;52.220;20.978;2023-09-19T07:40:02;21.40;99.90
17571;DHT22;8903;52.220;20.978;2023-09-19T07:42:32;21.40;99.90
17571;DHT22;8903;52.220;20.978;2023-09-19T07:45:02;21.50;99.90
17571;DHT22;8903;52.220;20.978;2023-09-19T07:47:29;21.50;99.90
17571;DHT22;8903;52.220;20.978;2023-09-19T07:49:58;21.50;99.90
17571;DHT22;8903;52.220;20.978;2023-09-19T07:52:25;21.40;99.90
17571;DHT22;8903;52.220;20.978;2023-09-19T07:54:53;21.40;99.90
17571;DHT22;8903;52.220;20.978;2023-09-19T07:57:20;21.40;99.90
17571;DHT22;8903;52.220;20.978;2023-09-19T07:59:47;21.40;99.90
17571;DHT22;8903;52.220;20.978;2023-09-19T08:02:16;21.40;99.90
17571;DHT22;8903;52.220;20.978;2023-09-19T08:04:44;21.40;99.90
17571;DHT22;8903;52.220;20.978;2023-09-19T08:07:12;21.40;99.90
17571;DHT22;8903;52.220;20.978;2023-09-19T08:09:39;21.50;99.90
17571;DHT22;8903;52.220;20.978;2023-09-19T08:12:07;21.40;99.90
17571;DHT22;8903;52.220;20.978;2023-09-19T08:14:36;21.40;99.90
17571;DHT22;8903;52.220;20.978;2023-09-19T08:17:03;21.40;99.90
17571;DHT22;8903;52.220;20.978;2023-09-19T08:19:35;21.40;99.90
17571;DHT22;8903;52.220;20.978;2023-09-19T08:22:02;21.40;99.90
17571;DHT22;8903;52.220;20.978;2023-09-19T08:24:30;21.50;99.90
17571;DHT22;8903;52.220;20.978;2023-09-19T08:26:59;21.40;99.90
17571;DHT22;8903;52.220;20.978;2023-09-19T08:29:25;21.30;99.90
17571;DHT22;8903;52.220;20.978;2023-09-19T08:31:54;21.30;99.90
17571;DHT22;8903;52.220;20.978;2023-09-19T08:34:22;21.30;99.90
17571;DHT22;8903;52.220;20.978;2023-09-19T08:36:51;21.20;99.90
17571;DHT22;8903;52.220;20.978;2023-09-19T08:39:22;21.10;99.90
17571;DHT22;8903;52.220;20.978;2023-09-19T08:41:49;21.00;99.90
17571;DHT22;8903;52.220;20.978;2023-09-19T08:44:16;20.90;99.90
17571;DHT22;8903;52.220;20.978;2023-09-19T08:46:45;20.80;99.90
17571;DHT22;8903;52.220;20.978;2023-09-19T08:49:19;20.70;99.90
17571;DHT22;8903;52.220;20.978;2023-09-19T08:51:57;20.70;99.90
17571;DHT22;8903;52.220;20.978;2023-09-19T08:54:34;20.60;99.90
17571;DHT22;8903;52.220;20.978;2023-09-19T08:57:07;20.60;99.90
17571;DHT22;8903;52.220;20.978;2023-09-19T08:59:37;20.60;99.90
17571;DHT22;8903;52.220;20.978;2023-09-19T09:02:11;20.60;99.90
17571;DHT22;8903;52.220;20.978;2023-09-19T09:04:39;20.70;99.90
17571;DHT22;8903;52.220;20.978;2023-09-19T09:07:11;20.80;99.90
17571;DHT22;8903;52.220;20.978;2023-09-19T09:09:39;20.70;99.90
17571;DHT22;8903;52.220;20.978;2023-09-19T09:12:09;20.70;99.90
17571;DHT22;8903;52.220;20.978;2023-09-19T09:14:38;20.70;99.90
17571;DHT22;8903;52.220;20.978;2023-09-19T09:17:05;20.70;99.90
17571;DHT22;8903;52.220;20.978;2023-09-19T09:19:33;20.70;99.90
17571;DHT22;8903;52.220;20.978;2023-09-19T09:22:07;20.70;99.90
17571;DHT22;8903;52.220;20.978;2023-09-19T09:24:36;20.60;99.90
17571;DHT22;8903;52.220;20.978;2023-09-19T09:27:06;20.50;99.90
17571;DHT22;8903;52.220;20.978;2023-09-19T09:29:43;20.30;99.90
17571;DHT22;8903;52.220;20.978;2023-09-19T09:32:23;20.20;99.90
17571;DHT22;8903;52.220;20.978;2023-09-19T09:34:54;19.80;99.90
17571;DHT22;8903;52.220;20.978;2023-09-19T09:37:24;19.20;99.90
17571;DHT22;8903;52.220;20.978;2023-09-19T09:39:54;18.90;99.90
17571;DHT22;8903;52.220;20.978;2023-09-19T09:42:31;18.60;99.90
17571;DHT22;8903;52.220;20.978;2023-09-19T09:45:17;18.40;99.90
17571;DHT22;8903;52.220;20.978;2023-09-19T09:47:49;18.10;99.90
17571;DHT22;8903;52.220;20.978;2023-09-19T09:50:29;18.00;99.90
17571;DHT22;8903;52.220;20.978;2023-09-19T09:53:03;18.00;99.90
17571;DHT22;8903;52.220;20.978;2023-09-19T09:55:57;18.10;99.90
17571;DHT22;8903;52.220;20.978;2023-09-19T09:58:25;17.90;99.90
17571;DHT22;8903;52.220;20.978;2023-09-19T10:00:55;17.80;99.90
17571;DHT22;8903;52.220;20.978;2023-09-19T10:03:36;17.80;99.90
17571;DHT22;8903;52.220;20.978;2023-09-19T10:06:07;17.70;99.90
17571;DHT22;8903;52.220;20.978;2023-09-19T10:09:03;17.70;99.90
17571;DHT22;8903;52.220;20.978;2023-09-19T10:11:43;17.80;99.90
17571;DHT22;8903;52.220;20.978;2023-09-19T10:14:12;17.80;99.90
17571;DHT22;8903;52.220;20.978;2023-09-19T10:16:46;17.90;99.90
17571;DHT22;8903;52.220;20.978;2023-09-19T10:19:21;17.90;99.90
17571;DHT22;8903;52.220;20.978;2023-09-19T10:21:50;18.10;99.90
17571;DHT22;8903;52.220;20.978;2023-09-19T10:24:22;18.10;99.90
17571;DHT22;8903;52.220;20.978;2023-09-19T10:26:52;18.20;99.90
17571;DHT22;8903;52.220;20.978;2023-09-19T10:29:21;18.30;99.90
17571;DHT22;8903;52.220;20.978;2023-09-19T10:31:52;18.30;99.90
17571;DHT22;8903;52.220;20.978;2023-09-19T10:34:20;18.30;99.90
17571;DHT22;8903;52.220;20.978;2023-09-19T10:36:51;18.40;99.90
17571;DHT22;8903;52.220;20.978;2023-09-19T10:39:18;18.40;99.90
17571;DHT22;8903;52.220;20.978;2023-09-19T10:41:50;18.50;99.90
17571;DHT22;8903;52.220;20.978;2023-09-19T10:44:24;18.50;99.90
17571;DHT22;8903;52.220;20.978;2023-09-19T10:46:52;18.60;99.90
17571;DHT22;8903;52.220;20.978;2023-09-19T10:49:19;18.60;99.90
17571;DHT22;8903;52.220;20.978;2023-09-19T10:51:49;18.60;99.90
17571;DHT22;8903;52.220;20.978;2023-09-19T10:54:18;18.50;99.90
17571;DHT22;8903;52.220;20.978;2023-09-19T10:56:50;18.30;99.90
17571;DHT22;8903;52.220;20.978;2023-09-19T10:59:18;18.10;99.90
17571;DHT22;8903;52.220;20.978;2023-09-19T11:01:49;18.10;99.90
17571;DHT22;8903;52.220;20.978;2023-09-19T11:04:37;18.20;99.90
17571;DHT22;8903;52.220;20.978;2023-09-19T11:07:06;18.30;99.90
17571;DHT22;8903;52.220;20.978;2023-09-19T11:09:49;18.40;99.90
17571;DHT22;8903;52.220;20.978;2023-09-19T11:12:50;18.30;99.90
17571;DHT22;8903;52.220;20.978;2023-09-19T11:18:55;18.40;99.90
17571;DHT22;8903;52.220;20.978;2023-09-19T11:21:53;18.40;99.90
17571;DHT22;8903;52.220;20.978;2023-09-19T11:24:29;18.60;99.90
17571;DHT22;8903;52.220;20.978;2023-09-19T11:27:14;18.70;99.90
17571;DHT22;8903;52.220;20.978;2023-09-19T11:29:44;18.70;99.90
17571;DHT22;8903;52.220;20.978;2023-09-19T11:32:11;18.70;99.90
17571;DHT22;8903;52.220;20.978;2023-09-19T11:34:43;18.70;99.90
17571;DHT22;8903;52.220;20.978;2023-09-19T11:40:45;18.50;99.90
17571;DHT22;8903;52.220;20.978;2023-09-19T11:43:31;18.50;99.90
17571;DHT22;8903;52.220;20.978;2023-09-19T11:46:08;18.50;99.90
17571;DHT22;8903;52.220;20.978;2023-09-19T11:48:38;18.40;99.90
17571;DHT22;8903;52.220;20.978;2023-09-19T11:51:18;18.40;99.90
17571;DHT22;8903;52.220;20.978;2023-09-19T11:53:48;18.50;99.90
17571;DHT22;8903;52.220;20.978;2023-09-19T11:56:17;18.50;99.90
17571;DHT22;8903;52.220;20.978;2023-09-19T11:58:44;18.60;99.90
17571;DHT22;8903;52.220;20.978;2023-09-19T12:01:19;18.60;99.90
17571;DHT22;8903;52.220;20.978;2023-09-19T12:03:53;18.50;99.90
17571;DHT22;8903;52.220;20.978;2023-09-19T12:06:22;18.50;99.90
17571;DHT22;8903;52.220;20.978;2023-09-19T12:08:49;18.60;99.90
17571;DHT22;8903;52.220;20.978;2023-09-19T12:11:20;18.80;99.90
17571;DHT22;8903;52.220;20.978;2023-09-19T12:13:49;18.80;99.90
17571;DHT22;8903;52.220;20.978;2023-09-19T12:16:17;18.80;99.90
17571;DHT22;8903;52.220;20.978;2023-09-19T12:18:48;18.70;99.90
17571;DHT22;8903;52.220;20.978;2023-09-19T12:21:23;18.70;99.90
17571;DHT22;8903;52.220;20.978;2023-09-19T12:23:59;18.70;99.90
17571;DHT22;8903;52.220;20.978;2023-09-19T12:26:36;18.70;99.90
17571;DHT22;8903;52.220;20.978;2023-09-19T12:29:04;18.80;99.90
17571;DHT22;8903;52.220;20.978;2023-09-19T12:31:31;18.80;99.90
17571;DHT22;8903;52.220;20.978;2023-09-19T12:34:02;18.80;99.90
17571;DHT22;8903;52.220;20.978;2023-09-19T12:36:31;18.70;99.90
17571;DHT22;8903;52.220;20.978;2023-09-19T12:39:00;18.70;99.90
17571;DHT22;8903;52.220;20.978;2023-09-19T12:41:34;18.70;99.90
17571;DHT22;8903;52.220;20.978;2023-09-19T12:44:01;18.80;99.90
17571;DHT22;8903;52.220;20.978;2023-09-19T12:46:34;18.70;99.90
17571;DHT22;8903;52.220;20.978;2023-09-19T12:49:17;18.70;99.90
17571;DHT22;8903;52.220;20.978;2023-09-19T12:51:46;18.70;99.90
17571;DHT22;8903;52.220;20.978;2023-09-19T12:54:13;18.80;99.90
17571;DHT22;8903;52.220;20.978;2023-09-19T12:56:42;18.80;99.90
17571;DHT22;8903;52.220;20.978;2023-09-19T12:59:12;18.90;99.90
17571;DHT22;8903;52.220;20.978;2023-09-19T13:01:40;18.90;99.90
17571;DHT22;8903;52.220;20.978;2023-09-19T13:04:14;18.90;99.90
17571;DHT22;8903;52.220;20.978;2023-09-19T13:06:45;18.90;99.90
17571;DHT22;8903;52.220;20.978;2023-09-19T13:09:14;18.90;99.90
17571;DHT22;8903;52.220;20.978;2023-09-19T13:11:44;18.90;99.90
17571;DHT22;8903;52.220;20.978;2023-09-19T13:14:15;19.00;99.90
17571;DHT22;8903;52.220;20.978;2023-09-19T13:17:00;19.00;99.90
17571;DHT22;8903;52.220;20.978;2023-09-19T13:19:37;19.00;99.90
17571;DHT22;8903;52.220;20.978;2023-09-19T13:22:40;19.00;99.90
17571;DHT22;8903;52.220;20.978;2023-09-19T13:25:10;19.00;99.90
17571;DHT22;8903;52.220;20.978;2023-09-19T13:27:40;19.00;99.90
17571;DHT22;8903;52.220;20.978;2023-09-19T13:30:09;19.00;99.90
17571;DHT22;8903;52.220;20.978;2023-09-19T13:32:36;19.00;99.90
17571;DHT22;8903;52.220;20.978;2023-09-19T13:35:05;18.90;99.90
17571;DHT22;8903;52.220;20.978;2023-09-19T13:37:34;19.00;99.90
17571;DHT22;8903;52.220;20.978;2023-09-19T13:40:04;19.00;99.90
17571;DHT22;8903;52.220;20.978;2023-09-19T13:42:31;19.00;99.90
17571;DHT22;8903;52.220;20.978;2023-09-19T13:44:58;19.10;99.90
17571;DHT22;8903;52.220;20.978;2023-09-19T13:47:25;19.10;99.90
17571;DHT22;8903;52.220;20.978;2023-09-19T13:49:52;19.10;99.90
17571;DHT22;8903;52.220;20.978;2023-09-19T13:52:19;19.20;99.90
17571;DHT22;8903;52.220;20.978;2023-09-19T13:54:47;19.20;99.90
17571;DHT22;8903;52.220;20.978;2023-09-19T13:57:16;19.20;99.90
17571;DHT22;8903;52.220;20.978;2023-09-19T13:59:43;19.20;99.90
17571;DHT22;8903;52.220;20.978;2023-09-19T14:02:10;19.30;99.90
17571;DHT22;8903;52.220;20.978;2023-09-19T14:04:36;19.30;99.90
17571;DHT22;8903;52.220;20.978;2023-09-19T14:07:03;19.30;99.90
17571;DHT22;8903;52.220;20.978;2023-09-19T14:09:30;19.40;99.90
17571;DHT22;8903;52.220;20.978;2023-09-19T14:11:57;19.30;99.90
17571;DHT22;8903;52.220;20.978;2023-09-19T14:14:25;19.30;99.90
17571;DHT22;8903;52.220;20.978;2023-09-19T14:16:52;19.20;99.90
17571;DHT22;8903;52.220;20.978;2023-09-19T14:19:20;19.20;99.90
17571;DHT22;8903;52.220;20.978;2023-09-19T14:21:47;19.30;99.90
17571;DHT22;8903;52.220;20.978;2023-09-19T14:24:16;19.30;99.90
17571;DHT22;8903;52.220;20.978;2023-09-19T14:26:44;19.30;99.90
17571;DHT22;8903;52.220;20.978;2023-09-19T14:29:11;19.30;99.90
17571;DHT22;8903;52.220;20.978;2023-09-19T14:31:40;19.30;99.90
17571;DHT22;8903;52.220;20.978;2023-09-19T14:34:07;19.00;99.90
17571;DHT22;8903;52.220;20.978;2023-09-19T14:36:35;19.10;99.90
17571;DHT22;8903;52.220;20.978;2023-09-19T14:39:04;18.90;99.90
17571;DHT22;8903;52.220;20.978;2023-09-19T14:41:32;18.70;99.90
17571;DHT22;8903;52.220;20.978;2023-09-19T14:43:59;18.70;99.90
17571;DHT22;8903;52.220;20.978;2023-09-19T14:46:25;18.60;99.90
17571;DHT22;8903;52.220;20.978;2023-09-19T14:48:56;18.70;99.90
17571;DHT22;8903;52.220;20.978;2023-09-19T14:51:25;18.70;99.90
17571;DHT22;8903;52.220;20.978;2023-09-19T14:53:53;18.80;99.90
17571;DHT22;8903;52.220;20.978;2023-09-19T14:56:20;18.80;99.90
17571;DHT22;8903;52.220;20.978;2023-09-19T14:58:47;18.80;99.90
17571;DHT22;8903;52.220;20.978;2023-09-19T15:01:15;18.90;99.90
17571;DHT22;8903;52.220;20.978;2023-09-19T15:03:42;18.90;99.90
17571;DHT22;8903;52.220;20.978;2023-09-19T15:06:11;18.90;99.90
17571;DHT22;8903;52.220;20.978;2023-09-19T15:08:40;18.90;99.90
17571;DHT22;8903;52.220;20.978;2023-09-19T15:11:11;19.00;99.90
17571;DHT22;8903;52.220;20.978;2023-09-19T15:13:38;19.00;99.90
17571;DHT22;8903;52.220;20.978;2023-09-19T15:16:06;19.00;99.90
17571;DHT22;8903;52.220;20.978;2023-09-19T15:18:36;19.00;99.90
17571;DHT22;8903;52.220;20.978;2023-09-19T15:21:04;19.00;99.90
17571;DHT22;8903;52.220;20.978;2023-09-19T15:23:33;19.00;99.90
17571;DHT22;8903;52.220;20.978;2023-09-19T15:26:00;19.10;99.90
17571;DHT22;8903;52.220;20.978;2023-09-19T15:28:27;19.20;99.90
17571;DHT22;8903;52.220;20.978;2023-09-19T15:30:58;19.20;99.90
17571;DHT22;8903;52.220;20.978;2023-09-19T15:33:25;19.30;99.90
17571;DHT22;8903;52.220;20.978;2023-09-19T15:36:01;19.30;99.90
17571;DHT22;8903;52.220;20.978;2023-09-19T15:38:29;19.40;99.90
17571;DHT22;8903;52.220;20.978;2023-09-19T15:40:58;19.40;99.90
17571;DHT22;8903;52.220;20.978;2023-09-19T15:43:26;19.40;99.90
17571;DHT22;8903;52.220;20.978;2023-09-19T15:45:52;19.50;99.90
17571;DHT22;8903;52.220;20.978;2023-09-19T15:48:19;19.50;99.90
17571;DHT22;8903;52.220;20.978;2023-09-19T15:50:47;19.40;99.90
17571;DHT22;8903;52.220;20.978;2023-09-19T15:53:14;19.50;99.90
17571;DHT22;8903;52.220;20.978;2023-09-19T15:55:42;19.50;99.90